createdAt,value
2018-05-24T00:00:55.728Z,99.90
2018-05-24T00:03:24.098Z,99.90
2018-05-24T00:05:52.332Z,99.90
2018-05-24T00:08:19.804Z,99.90
2018-05-24T00:10:47.300Z,99.90
2018-05-24T00:13:15.674Z,99.90
2018-05-24T00:15:43.921Z,99.90
2018-05-24T00:18:11.408Z,99.90
2018-05-24T00:20:38.862Z,99.90
2018-05-24T00:23:07.130Z,99.90
2018-05-24T00:25:34.612Z,99.90
2018-05-24T00:28:02.918Z,99.90
2018-05-24T00:30:30.391Z,99.90
2018-05-24T00:32:57.892Z,99.90
2018-05-24T00:35:25.433Z,99.90
2018-05-24T00:37:52.963Z,99.90
2018-05-24T00:40:20.428Z,99.90
2018-05-24T00:42:47.902Z,99.90
2018-05-24T00:45:15.402Z,99.90
2018-05-24T00:47:43.653Z,99.90
2018-05-24T00:50:11.144Z,99.90
2018-05-24T00:52:39.400Z,99.90
2018-05-24T00:55:18.677Z,99.90
2018-05-24T00:57:46.160Z,99.90
2018-05-24T01:00:13.640Z,99.90
2018-05-24T01:02:41.129Z,99.90
2018-05-24T01:05:09.386Z,99.90
2018-05-24T01:07:36.853Z,99.90
2018-05-24T01:10:04.330Z,99.90
2018-05-24T01:12:32.565Z,99.90
2018-05-24T01:15:00.083Z,99.90
2018-05-24T01:17:27.564Z,99.90
2018-05-24T01:19:55.030Z,99.90
2018-05-24T01:22:22.536Z,99.90
2018-05-24T01:24:50.774Z,99.90
2018-05-24T01:27:18.264Z,99.90
2018-05-24T01:29:46.507Z,99.90
2018-05-24T01:32:13.992Z,99.90
2018-05-24T01:34:41.460Z,99.90
2018-05-24T01:37:21.554Z,99.90
2018-05-24T01:39:49.012Z,99.90
2018-05-24T01:42:16.496Z,99.90
2018-05-24T01:44:43.977Z,99.90
2018-05-24T01:49:45.508Z,99.90
2018-05-24T01:52:13.002Z,99.90
2018-05-24T01:54:40.471Z,99.90
2018-05-24T01:57:08.724Z,99.90
2018-05-24T01:59:36.229Z,99.90
2018-05-24T02:02:04.473Z,99.90
2018-05-24T02:04:31.936Z,99.90
2018-05-24T02:06:59.446Z,99.90
2018-05-24T02:09:27.129Z,99.90
2018-05-24T02:11:54.593Z,99.90
2018-05-24T02:14:22.068Z,99.90
2018-05-24T02:16:50.358Z,99.90
2018-05-24T02:19:17.865Z,99.90
2018-05-24T02:21:45.316Z,99.90
2018-05-24T02:24:12.796Z,99.90
2018-05-24T02:26:40.258Z,99.90
2018-05-24T02:29:07.763Z,99.90
2018-05-24T02:31:35.221Z,99.90
2018-05-24T02:34:03.497Z,99.90
2018-05-24T02:36:31.731Z,99.90
2018-05-24T02:38:59.259Z,99.90
2018-05-24T02:41:26.754Z,99.90
2018-05-24T02:43:54.242Z,99.90
2018-05-24T02:46:22.502Z,99.90
2018-05-24T02:48:49.964Z,99.90
2018-05-24T02:51:17.469Z,99.90
2018-05-24T02:53:44.943Z,99.90
2018-05-24T02:56:12.432Z,99.90
2018-05-24T02:58:39.917Z,99.90
2018-05-24T03:01:07.382Z,99.90
2018-05-24T03:03:36.375Z,99.90
2018-05-24T03:06:03.872Z,99.90
2018-05-24T03:08:31.338Z,99.90
2018-05-24T03:10:58.817Z,99.90
2018-05-24T03:13:26.289Z,99.90
2018-05-24T03:15:53.814Z,99.90
2018-05-24T03:18:21.292Z,99.90
2018-05-24T03:20:48.796Z,99.90
2018-05-24T03:23:17.052Z,99.90
2018-05-24T03:25:44.555Z,99.90
2018-05-24T03:28:12.042Z,99.90
2018-05-24T03:30:39.501Z,99.90
2018-05-24T03:33:06.980Z,99.90
2018-05-24T03:35:34.491Z,99.90
2018-05-24T03:38:01.985Z,99.90
2018-05-24T03:40:29.469Z,99.90
2018-05-24T03:42:56.965Z,99.90
2018-05-24T03:45:24.467Z,99.90
2018-05-24T03:47:51.931Z,99.90
2018-05-24T03:50:19.413Z,99.90
2018-05-24T03:52:47.668Z,99.90
2018-05-24T03:55:15.265Z,99.90
2018-05-24T03:57:43.568Z,99.90
2018-05-24T04:00:22.858Z,99.90
2018-05-24T04:03:02.282Z,99.90
2018-05-24T04:05:29.752Z,99.90
2018-05-24T04:07:57.227Z,99.90
2018-05-24T04:10:25.610Z,99.90
2018-05-24T04:12:53.839Z,99.90
2018-05-24T04:15:21.333Z,99.90
2018-05-24T04:17:48.817Z,99.90
2018-05-24T04:20:16.398Z,99.90
2018-05-24T04:22:43.869Z,99.90
2018-05-24T04:25:11.339Z,99.90
2018-05-24T04:27:38.829Z,99.90
2018-05-24T04:30:06.310Z,99.90
2018-05-24T04:32:33.773Z,99.90
2018-05-24T04:35:01.270Z,99.90
2018-05-24T04:37:28.725Z,99.90
2018-05-24T04:39:56.193Z,99.90
2018-05-24T04:42:23.675Z,99.90
2018-05-24T04:44:51.150Z,99.90
2018-05-24T04:47:19.380Z,99.90
2018-05-24T04:49:46.857Z,99.90
2018-05-24T04:52:15.153Z,99.90
2018-05-24T04:54:42.589Z,99.90
2018-05-24T04:57:10.059Z,99.90
2018-05-24T04:59:37.597Z,99.90
2018-05-24T05:02:05.060Z,99.90
2018-05-24T05:04:32.562Z,99.90
2018-05-24T05:07:00.892Z,99.90
2018-05-24T05:09:28.373Z,99.90
2018-05-24T05:11:55.865Z,99.90
2018-05-24T05:14:24.092Z,99.90
2018-05-24T05:16:51.570Z,99.90
2018-05-24T05:19:19.052Z,99.90
2018-05-24T05:21:47.276Z,99.90
2018-05-24T05:24:14.742Z,99.90
2018-05-24T05:26:42.254Z,99.90
2018-05-24T05:29:09.755Z,99.90
2018-05-24T05:31:37.228Z,99.90
2018-05-24T05:34:04.694Z,99.90
2018-05-24T05:36:32.183Z,99.90
2018-05-24T05:39:00.398Z,99.90
2018-05-24T05:41:27.920Z,99.90
2018-05-24T05:43:56.353Z,99.90
2018-05-24T05:46:23.838Z,99.90
2018-05-24T05:48:51.312Z,99.90
2018-05-24T05:51:19.574Z,99.90
2018-05-24T05:53:47.044Z,99.90
2018-05-24T05:56:15.311Z,99.90
2018-05-24T05:58:43.576Z,99.90
2018-05-24T06:01:11.068Z,99.90
2018-05-24T06:03:38.546Z,99.90
2018-05-24T06:06:06.056Z,99.90
2018-05-24T06:08:33.521Z,99.90
2018-05-24T06:11:00.988Z,99.90
2018-05-24T06:13:29.267Z,99.90
2018-05-24T06:15:57.492Z,99.90
2018-05-24T06:18:24.980Z,99.90
2018-05-24T06:20:52.448Z,98.80
2018-05-24T06:23:20.012Z,96.60
2018-05-24T06:25:47.490Z,97.50
2018-05-24T06:28:15.759Z,96.70
2018-05-24T06:30:43.986Z,97.30
2018-05-24T06:33:11.467Z,97.20
2018-05-24T06:35:38.932Z,98.10
2018-05-24T06:38:06.473Z,98.80
2018-05-24T06:40:34.057Z,98.40
2018-05-24T06:43:02.215Z,93.80
2018-05-24T06:45:29.696Z,93.70
2018-05-24T06:47:57.181Z,94.50
2018-05-24T06:50:24.711Z,93.10
2018-05-24T06:52:52.895Z,93.80
2018-05-24T06:55:20.379Z,93.70
2018-05-24T06:57:47.913Z,93.80
2018-05-24T07:00:15.408Z,93.60
2018-05-24T07:02:42.872Z,94.00
2018-05-24T07:05:10.358Z,94.40
2018-05-24T07:07:37.886Z,93.60
2018-05-24T07:10:05.381Z,92.90
2018-05-24T07:12:32.853Z,91.70
2018-05-24T07:15:01.174Z,88.40
2018-05-24T07:17:28.641Z,88.40
2018-05-24T07:19:56.129Z,86.90
2018-05-24T07:22:23.684Z,83.20
2018-05-24T07:24:51.185Z,80.30
2018-05-24T07:27:19.437Z,76.50
2018-05-24T07:29:47.093Z,76.20
2018-05-24T07:32:14.554Z,73.90
2018-05-24T07:34:42.039Z,69.30
2018-05-24T07:37:10.263Z,66.40
2018-05-24T07:39:37.828Z,66.00
2018-05-24T07:42:05.429Z,65.70
2018-05-24T07:44:33.661Z,65.00
2018-05-24T07:47:01.161Z,65.00
2018-05-24T07:49:28.684Z,69.30
2018-05-24T07:51:56.255Z,69.10
2018-05-24T07:54:23.790Z,70.70
2018-05-24T07:56:51.275Z,70.00
2018-05-24T07:59:18.766Z,70.30
2018-05-24T08:01:46.295Z,69.90
2018-05-24T08:04:13.708Z,69.80
2018-05-24T08:06:42.809Z,67.70
2018-05-24T08:09:10.298Z,67.70
2018-05-24T08:11:37.793Z,67.40
2018-05-24T08:14:05.277Z,66.80
2018-05-24T08:16:33.541Z,69.10
2018-05-24T08:19:01.782Z,68.00
2018-05-24T08:21:29.273Z,68.60
2018-05-24T08:23:56.842Z,69.20
2018-05-24T08:26:25.081Z,72.50
2018-05-24T08:28:52.569Z,72.30
2018-05-24T08:31:20.820Z,69.00
2018-05-24T08:33:48.296Z,69.00
2018-05-24T08:36:16.584Z,66.60
2018-05-24T08:38:44.051Z,66.70
2018-05-24T08:41:12.305Z,72.60
2018-05-24T08:43:39.777Z,72.60
2018-05-24T08:46:08.758Z,70.60
2018-05-24T08:48:36.217Z,70.60
2018-05-24T08:51:03.693Z,67.80
2018-05-24T08:53:31.956Z,70.60
2018-05-24T08:55:59.431Z,70.60
2018-05-24T08:58:26.948Z,69.90
2018-05-24T09:00:54.429Z,72.80
2018-05-24T09:03:21.954Z,70.60
2018-05-24T09:05:49.440Z,69.40
2018-05-24T09:08:16.929Z,67.80
2018-05-24T09:10:45.184Z,69.30
2018-05-24T09:13:12.650Z,69.30
2018-05-24T09:15:40.145Z,67.80
2018-05-24T09:18:07.617Z,68.00
2018-05-24T09:20:35.115Z,66.90
2018-05-24T09:23:02.597Z,65.90
2018-05-24T09:25:30.841Z,63.50
2018-05-24T09:27:58.325Z,63.50
2018-05-24T09:30:25.801Z,62.50
2018-05-24T09:32:54.064Z,63.70
2018-05-24T09:37:55.449Z,63.40
2018-05-24T09:40:22.913Z,62.40
2018-05-24T09:42:50.383Z,63.40
2018-05-24T09:45:18.696Z,62.70
2018-05-24T09:47:46.243Z,62.60
2018-05-24T09:50:13.656Z,63.30
2018-05-24T09:52:41.911Z,63.10
2018-05-24T09:55:09.403Z,62.90
2018-05-24T09:57:37.639Z,62.20
2018-05-24T10:00:05.101Z,62.10
2018-05-24T10:02:32.596Z,61.30
2018-05-24T10:05:01.183Z,59.10
2018-05-24T10:07:29.533Z,58.60
2018-05-24T10:09:57.037Z,58.50
2018-05-24T10:12:24.508Z,59.90
2018-05-24T10:14:51.995Z,62.00
2018-05-24T10:17:19.490Z,62.10
2018-05-24T10:19:47.747Z,60.50
2018-05-24T10:22:15.230Z,60.40
2018-05-24T10:24:43.484Z,59.50
2018-05-24T10:27:10.990Z,59.50
2018-05-24T10:29:38.523Z,60.40
2018-05-24T10:32:05.989Z,61.40
2018-05-24T10:34:33.468Z,61.20
2018-05-24T10:37:01.059Z,63.70
2018-05-24T10:39:28.583Z,63.50
2018-05-24T10:41:56.005Z,64.00
2018-05-24T10:44:24.299Z,62.40
2018-05-24T10:46:52.531Z,65.10
2018-05-24T10:49:21.654Z,65.10
2018-05-24T10:51:50.095Z,64.10
2018-05-24T10:54:17.670Z,65.10
2018-05-24T10:56:45.097Z,64.10
2018-05-24T10:59:12.579Z,65.50
2018-05-24T11:01:40.084Z,67.40
2018-05-24T11:04:08.316Z,68.20
2018-05-24T11:06:35.798Z,68.20
2018-05-24T11:09:03.261Z,70.30
2018-05-24T11:11:30.747Z,72.00
2018-05-24T11:13:58.218Z,73.40
2018-05-24T11:16:25.707Z,75.00
2018-05-24T11:18:53.189Z,74.80
2018-05-24T11:21:21.441Z,77.10
2018-05-24T11:23:48.941Z,77.10
2018-05-24T11:26:16.421Z,77.60
2018-05-24T11:28:44.675Z,82.10
2018-05-24T11:31:12.916Z,85.20
2018-05-24T11:33:40.416Z,84.50
2018-05-24T11:36:08.565Z,86.10
2018-05-24T11:38:36.104Z,87.10
2018-05-24T11:41:03.616Z,87.60
2018-05-24T11:43:31.978Z,87.20
2018-05-24T11:45:59.375Z,87.20
2018-05-24T11:48:26.857Z,88.30
2018-05-24T11:50:54.325Z,88.80
2018-05-24T11:53:21.910Z,89.90
2018-05-24T11:55:50.060Z,90.60
2018-05-24T11:58:17.592Z,90.60
2018-05-24T12:00:45.118Z,90.80
2018-05-24T12:03:12.560Z,91.40
2018-05-24T12:05:40.030Z,90.60
2018-05-24T12:08:07.501Z,90.80
2018-05-24T12:10:35.748Z,91.00
2018-05-24T12:13:03.225Z,91.00
2018-05-24T12:15:30.735Z,91.30
2018-05-24T12:17:58.220Z,90.30
2018-05-24T12:20:25.710Z,90.00
2018-05-24T12:22:53.987Z,90.20
2018-05-24T12:25:22.228Z,89.50
2018-05-24T12:27:49.752Z,89.50
2018-05-24T12:30:17.226Z,87.40
2018-05-24T12:32:44.733Z,88.90
2018-05-24T12:35:12.271Z,88.20
2018-05-24T12:37:39.729Z,89.50
2018-05-24T12:40:07.240Z,90.00
2018-05-24T12:42:35.423Z,91.30
2018-05-24T12:45:02.961Z,92.00
2018-05-24T12:47:31.656Z,94.00
2018-05-24T12:49:59.900Z,94.90
2018-05-24T12:52:27.392Z,94.80
2018-05-24T12:54:54.880Z,94.50
2018-05-24T12:57:22.368Z,95.70
2018-05-24T12:59:49.905Z,95.20
2018-05-24T13:02:17.389Z,95.60
2018-05-24T13:04:44.873Z,94.20
2018-05-24T13:07:12.337Z,93.70
2018-05-24T13:09:40.581Z,91.10
2018-05-24T13:12:08.064Z,91.10
2018-05-24T13:14:35.536Z,91.40
2018-05-24T13:17:03.835Z,91.50
2018-05-24T13:19:31.261Z,91.50
2018-05-24T13:21:58.772Z,91.30
2018-05-24T13:24:26.324Z,92.60
2018-05-24T13:26:54.532Z,91.70
2018-05-24T13:29:22.011Z,91.70
2018-05-24T13:31:50.265Z,93.50
2018-05-24T13:34:17.737Z,93.40
2018-05-24T13:36:45.206Z,94.70
2018-05-24T13:39:12.697Z,94.80
2018-05-24T13:41:40.199Z,95.60
2018-05-24T13:44:07.653Z,96.90
2018-05-24T13:46:35.128Z,96.80
2018-05-24T13:49:02.617Z,96.60
2018-05-24T13:51:30.097Z,97.50
2018-05-24T13:53:57.572Z,97.20
2018-05-24T13:56:25.049Z,96.90
2018-05-24T13:58:52.611Z,96.90
2018-05-24T14:01:20.112Z,97.50
2018-05-24T14:03:48.350Z,97.80
2018-05-24T14:06:15.830Z,97.80
2018-05-24T14:08:43.314Z,97.40
2018-05-24T14:11:11.567Z,98.10
2018-05-24T14:13:40.573Z,98.40
2018-05-24T14:16:08.822Z,99.90
2018-05-24T14:18:36.296Z,99.50
2018-05-24T14:21:04.016Z,99.50
2018-05-24T14:23:31.507Z,98.60
2018-05-24T14:25:58.988Z,99.40
2018-05-24T14:28:27.219Z,99.60
2018-05-24T14:30:54.713Z,99.60
2018-05-24T14:33:22.178Z,99.40
2018-05-24T14:35:49.647Z,99.90
2018-05-24T14:38:17.876Z,99.90
2018-05-24T14:40:45.355Z,99.90
2018-05-24T14:43:12.823Z,99.80
2018-05-24T14:45:41.062Z,99.80
2018-05-24T14:48:08.610Z,99.80
2018-05-24T14:50:36.088Z,99.90
2018-05-24T14:53:03.570Z,99.20
2018-05-24T14:55:31.052Z,99.90
2018-05-24T14:57:59.401Z,99.90
2018-05-24T15:00:26.889Z,99.90
2018-05-24T15:02:55.120Z,99.90
2018-05-24T15:05:26.996Z,99.90
2018-05-24T15:07:55.832Z,99.90
2018-05-24T15:10:24.032Z,99.90
2018-05-24T15:12:51.510Z,99.90
2018-05-24T15:15:19.009Z,99.90
2018-05-24T15:17:46.488Z,99.90
2018-05-24T15:20:14.732Z,99.90
2018-05-24T15:22:42.208Z,99.90
2018-05-24T15:25:11.464Z,99.90
2018-05-24T15:27:38.975Z,99.90
2018-05-24T15:30:06.448Z,99.90
2018-05-24T15:32:33.943Z,99.90
2018-05-24T15:35:01.421Z,99.90
2018-05-24T15:37:28.906Z,99.90
2018-05-24T15:39:57.345Z,99.90
2018-05-24T15:42:24.841Z,99.90
2018-05-24T15:44:52.389Z,99.90
2018-05-24T15:47:19.868Z,99.90
2018-05-24T15:49:48.132Z,99.90
2018-05-24T15:52:15.610Z,99.90
2018-05-24T15:54:43.872Z,99.90
2018-05-24T15:57:11.413Z,99.90
2018-05-24T15:59:38.902Z,99.90
2018-05-24T16:02:07.161Z,99.90
2018-05-24T16:04:34.682Z,99.90
2018-05-24T16:07:02.141Z,99.90
2018-05-24T16:09:29.658Z,99.90
2018-05-24T16:11:58.024Z,99.90
2018-05-24T16:14:25.507Z,99.90
2018-05-24T16:16:53.836Z,99.90
2018-05-24T16:19:21.329Z,99.90
2018-05-24T16:21:48.853Z,99.90
2018-05-24T16:24:16.324Z,99.90
2018-05-24T16:26:43.816Z,99.90
2018-05-24T16:29:12.066Z,99.90
2018-05-24T16:31:39.544Z,99.90
2018-05-24T16:34:07.808Z,99.90
2018-05-24T16:36:35.289Z,99.90
2018-05-24T16:39:03.537Z,99.90
2018-05-24T16:41:31.016Z,99.90
2018-05-24T16:44:00.047Z,99.90
2018-05-24T16:46:27.528Z,99.90
2018-05-24T16:48:54.992Z,99.90
2018-05-24T16:51:22.548Z,99.90
2018-05-24T16:53:50.024Z,99.90
2018-05-24T16:56:17.507Z,99.90
2018-05-24T16:58:44.970Z,99.90
2018-05-24T17:01:13.222Z,99.90
2018-05-24T17:03:41.496Z,99.90
2018-05-24T17:06:08.992Z,99.90
2018-05-24T17:08:36.482Z,99.90
2018-05-24T17:11:04.000Z,99.90
2018-05-24T17:13:31.545Z,99.90
2018-05-24T17:15:59.017Z,99.90
2018-05-24T17:18:27.331Z,99.90
2018-05-24T17:20:54.852Z,99.90
2018-05-24T17:23:23.119Z,99.90
2018-05-24T17:25:50.685Z,99.90
2018-05-24T17:28:18.184Z,99.90
2018-05-24T17:30:45.653Z,99.90
2018-05-24T17:33:13.196Z,99.90
2018-05-24T17:35:40.669Z,99.90
2018-05-24T17:38:08.164Z,99.90
2018-05-24T17:40:35.660Z,99.90
2018-05-24T17:43:03.909Z,99.90
2018-05-24T17:45:32.156Z,99.90
2018-05-24T17:47:59.670Z,99.90
2018-05-24T17:50:27.949Z,99.90
2018-05-24T17:52:55.566Z,99.90
2018-05-24T17:55:23.073Z,99.90
2018-05-24T17:57:50.663Z,99.90
2018-05-24T18:00:18.171Z,99.90
2018-05-24T18:02:45.715Z,99.90
2018-05-24T18:05:14.041Z,99.90
2018-05-24T18:07:41.606Z,99.90
2018-05-24T18:10:09.106Z,99.90
2018-05-24T18:12:36.585Z,99.90
2018-05-24T18:15:04.093Z,99.90
2018-05-24T18:17:31.591Z,99.90
2018-05-24T18:19:59.131Z,99.90
2018-05-24T18:22:26.853Z,99.90
2018-05-24T18:24:55.182Z,99.90
2018-05-24T18:27:22.710Z,99.90
2018-05-24T18:29:50.203Z,99.90
2018-05-24T18:32:17.693Z,99.90
2018-05-24T18:34:45.211Z,99.90
2018-05-24T18:37:12.794Z,99.90
2018-05-24T18:39:40.295Z,99.90
2018-05-24T18:42:08.591Z,99.90
2018-05-24T18:44:36.118Z,99.90
2018-05-24T18:47:04.450Z,99.90
2018-05-24T18:49:31.921Z,99.90
2018-05-24T18:51:59.438Z,99.90
2018-05-24T18:54:26.944Z,99.90
2018-05-24T18:56:54.623Z,99.90
2018-05-24T18:59:22.893Z,99.90
2018-05-24T19:01:50.411Z,99.90
2018-05-24T19:04:18.106Z,99.90
2018-05-24T19:06:45.578Z,99.90
2018-05-24T19:09:13.065Z,99.90
2018-05-24T19:11:41.335Z,99.90
2018-05-24T19:14:09.590Z,99.90
2018-05-24T19:16:37.105Z,99.90
2018-05-24T19:19:04.612Z,99.90
2018-05-24T19:21:32.094Z,99.90
2018-05-24T19:24:00.333Z,99.90
2018-05-24T19:26:27.836Z,99.90
2018-05-24T19:28:56.114Z,99.90
2018-05-24T19:31:24.568Z,99.90
2018-05-24T19:33:52.048Z,99.90
2018-05-24T19:36:20.293Z,99.90
2018-05-24T19:38:47.787Z,99.90
2018-05-24T19:41:16.071Z,99.90
2018-05-24T19:43:44.393Z,99.90
2018-05-24T19:46:11.860Z,99.90
2018-05-24T19:48:39.489Z,99.90
2018-05-24T19:51:06.972Z,99.90
2018-05-24T19:53:42.917Z,99.90
2018-05-24T19:56:10.840Z,99.90
2018-05-24T19:58:39.666Z,99.90
2018-05-24T20:01:07.148Z,99.90
2018-05-24T20:03:34.619Z,99.90
2018-05-24T20:06:02.118Z,99.90
2018-05-24T20:08:30.418Z,99.90
2018-05-24T20:10:57.883Z,99.90
2018-05-24T20:13:25.362Z,99.90
2018-05-24T20:15:52.844Z,99.90
2018-05-24T20:18:20.364Z,99.90
2018-05-24T20:20:47.849Z,99.90
2018-05-24T20:23:15.681Z,99.90
2018-05-24T20:25:43.189Z,99.90
2018-05-24T20:28:10.691Z,99.90
2018-05-24T20:30:38.201Z,99.90
2018-05-24T20:33:05.679Z,99.90
2018-05-24T20:35:33.195Z,99.90
2018-05-24T20:38:01.010Z,99.90
2018-05-24T20:40:29.248Z,99.90
2018-05-24T20:42:56.941Z,99.90
2018-05-24T20:45:24.513Z,99.90
2018-05-24T20:47:52.761Z,99.90
2018-05-24T20:50:20.324Z,99.90
2018-05-24T20:52:47.818Z,99.90
2018-05-24T20:55:16.073Z,99.90
2018-05-24T20:57:43.678Z,99.90
2018-05-24T21:00:11.362Z,99.90
2018-05-24T21:02:38.836Z,99.90
2018-05-24T21:05:06.355Z,99.90
2018-05-24T21:07:33.837Z,99.90
2018-05-24T21:10:01.323Z,99.90
2018-05-24T21:12:28.836Z,99.90
2018-05-24T21:14:56.457Z,99.90
2018-05-24T21:17:23.938Z,99.90
2018-05-24T21:19:51.438Z,99.90
2018-05-24T21:22:18.969Z,99.90
2018-05-24T21:24:46.605Z,99.90
2018-05-24T21:27:14.869Z,99.90
2018-05-24T21:29:42.366Z,99.90
2018-05-24T21:32:09.873Z,99.90
2018-05-24T21:34:37.445Z,99.90
2018-05-24T21:37:04.940Z,99.90
2018-05-24T21:39:33.190Z,99.90
2018-05-24T21:42:00.666Z,99.90
2018-05-24T21:44:28.959Z,99.90
2018-05-24T21:46:57.429Z,99.90
2018-05-24T21:49:25.694Z,99.90
2018-05-24T21:51:53.168Z,99.90
2018-05-24T21:54:21.403Z,99.90
2018-05-24T21:56:48.899Z,99.90
2018-05-24T21:59:17.188Z,99.90
2018-05-24T22:01:44.670Z,99.90
2018-05-24T22:04:12.144Z,99.90
2018-05-24T22:06:39.691Z,99.90
2018-05-24T22:09:07.162Z,99.90
2018-05-24T22:11:34.655Z,99.90
2018-05-24T22:14:02.901Z,99.90
2018-05-24T22:16:30.382Z,99.90
2018-05-24T22:18:57.875Z,99.90
2018-05-24T22:21:26.142Z,99.90
2018-05-24T22:23:53.601Z,99.90
2018-05-24T22:26:21.850Z,99.90
2018-05-24T22:28:49.381Z,99.90
2018-05-24T22:31:17.029Z,99.90
2018-05-24T22:33:44.546Z,99.90
2018-05-24T22:36:12.013Z,99.90
2018-05-24T22:38:40.267Z,99.90
2018-05-24T22:41:07.761Z,99.90
2018-05-24T22:43:36.029Z,99.90
2018-05-24T22:46:04.322Z,99.90
2018-05-24T22:48:32.573Z,99.90
2018-05-24T22:51:00.903Z,99.90
2018-05-24T22:53:28.382Z,99.90
2018-05-24T22:55:55.855Z,99.90
2018-05-24T22:58:23.326Z,99.90
2018-05-24T23:00:50.812Z,99.90
2018-05-24T23:03:18.295Z,99.90
2018-05-24T23:05:45.773Z,99.90
2018-05-24T23:08:13.279Z,99.90
2018-05-24T23:10:40.763Z,99.90
2018-05-24T23:13:08.245Z,99.90
2018-05-24T23:15:35.713Z,99.90
2018-05-24T23:18:03.181Z,99.90
2018-05-24T23:20:30.680Z,99.90
2018-05-24T23:22:58.922Z,99.90
2018-05-24T23:25:26.387Z,99.90
2018-05-24T23:27:53.872Z,99.90
2018-05-24T23:30:22.171Z,99.90
2018-05-24T23:32:49.663Z,99.90
2018-05-24T23:35:17.310Z,99.90
2018-05-24T23:37:45.816Z,99.90
2018-05-24T23:40:13.386Z,99.90
2018-05-24T23:42:40.880Z,99.90
2018-05-24T23:45:08.344Z,99.90
2018-05-24T23:47:35.825Z,99.90
2018-05-24T23:50:03.344Z,99.90
2018-05-24T23:52:31.588Z,99.90
2018-05-24T23:54:59.130Z,99.90
2018-05-24T23:57:26.596Z,99.90
2018-05-24T23:59:54.086Z,99.90
